Kimberly Turecamo — WDC6838 — position and weather

sailwx.info

Track history (hours):
 
Tides and Currents Weather Stations Pressure Air Temp Water Temp Dewpoint Dewpoint Depression Visibility Wind Speed Wind Dir Waves Ship Positions

Kimberly Turecamo

Owner: Moran Towing Corporation, New Canaan, CT. More information available from US FCC via Universal Licensing System and Coast Guard Vessel Documentation Center.

Last reported at 2016-Feb-06 14:26 UTC. Time now 2016-Feb-06 23:26 UTC.
Position N 40°49' W 073°58'.

Length 33 m; draft 5 m.

Type: Tug. MMSI: 367061980.

Date/timePositionNaut miles runAvg speedWind from/ knotsBaromVisibWave heightAir tempDewpointWater temp
2016-Feb-06 14:26N 40°49' W 073°58'0 0.0
2016-Feb-06 13:29N 40°49' W 073°58'0 0.0
2016-Feb-06 12:32N 40°49' W 073°58'0 0.0
2016-Feb-06 11:29N 40°49' W 073°58'0 0.0
2016-Feb-06 10:32N 40°49' W 073°58'0 0.0
2016-Feb-06 09:17N 40°49' W 073°58'0 0.1
2016-Feb-06 02:30N 40°49' W 073°58'8 8.5
2016-Feb-06 01:33N 40°41' W 074°02'2 2.3
2016-Feb-06 00:32N 40°39' W 074°03'0 0.0
2016-Feb-05 23:32N 40°39' W 074°02'0 0.0
2016-Feb-05 22:32N 40°39' W 074°02'0 0.0
2016-Feb-05 21:31N 40°39' W 074°03'0 0.0
2016-Feb-05 20:31N 40°39' W 074°03'0 0.0
2016-Feb-05 19:31N 40°39' W 074°03'0 0.0
2016-Feb-05 18:31N 40°39' W 074°03'0 0.0
2016-Feb-05 17:31N 40°39' W 074°03'0 0.0
2016-Feb-05 16:31N 40°39' W 074°03'0 0.0
2016-Feb-05 15:31N 40°39' W 074°03'0 0.0
2016-Feb-05 14:31N 40°39' W 074°03'0 0.0
2016-Feb-05 13:31N 40°39' W 074°03'0 0.0
2016-Feb-05 12:31N 40°39' W 074°03'0 0.0
2016-Feb-05 11:31N 40°39' W 074°03'0 0.0
2016-Feb-05 10:31N 40°39' W 074°03'0 0.0
2016-Feb-05 09:31N 40°39' W 074°03'0 0.0
2016-Feb-05 08:31N 40°39' W 074°03'0 0.0
2016-Feb-05 07:31N 40°39' W 074°03'0 0.0
2016-Feb-05 06:31N 40°39' W 074°03'2 1.9
2016-Feb-05 05:33N 40°39' W 074°05'2 2.2
2016-Feb-05 04:33N 40°38' W 074°08'0 0.0
2016-Feb-05 03:27N 40°38' W 074°08'0 0.0
2016-Feb-05 02:24N 40°38' W 074°08'0 0.0
2016-Feb-05 01:33N 40°38' W 074°08'0 0.0
2016-Feb-05 00:33N 40°38' W 074°08'1 0.5
2016-Feb-04 23:33N 40°38' W 074°08'1 1.2
2016-Feb-04 22:33N 40°40' W 074°09'1 1.3
2016-Feb-04 21:31N 40°38' W 074°08'0 0.0
2016-Feb-04 20:31N 40°38' W 074°08'2 1.8
2016-Feb-04 19:33N 40°39' W 074°06'2 2.2
2016-Feb-04 18:32N 40°39' W 074°03'0 0.0
2016-Feb-04 17:32N 40°39' W 074°03'0 0.0
2016-Feb-04 16:32N 40°39' W 074°03'0 0.0
2016-Feb-04 15:31N 40°39' W 074°03'0 0.0
2016-Feb-04 14:33N 40°39' W 074°03'0 0.0
2016-Feb-04 13:33N 40°39' W 074°03'0 0.0
2016-Feb-04 12:33N 40°39' W 074°03'0 0.0
2016-Feb-04 11:33N 40°39' W 074°03'0 0.1
2016-Feb-04 10:33N 40°39' W 074°03'0 0.0
2016-Feb-04 09:33N 40°39' W 074°03'0 0.0
2016-Feb-04 08:33N 40°39' W 074°03'0 0.0
2016-Feb-04 07:33N 40°39' W 074°03'0 0.0
2016-Feb-04 06:33N 40°39' W 074°03'0 0.1
2016-Feb-04 05:33N 40°39' W 074°03'0 0.0
2016-Feb-04 04:33N 40°39' W 074°03'0 0.0
2016-Feb-04 03:33N 40°39' W 074°03'0 0.0
2016-Feb-04 02:33N 40°39' W 074°03'4 4.0
2016-Feb-04 01:33N 40°38' W 074°08'0 0.0
2016-Feb-04 00:32N 40°38' W 074°08'0 0.0
2016-Feb-03 23:33N 40°38' W 074°08'0 0.0
2016-Feb-03 22:33N 40°38' W 074°08'0 0.0
2016-Feb-03 21:33N 40°38' W 074°08'0 0.0
2016-Feb-03 20:33N 40°38' W 074°08'0 0.0
2016-Feb-03 19:33N 40°38' W 074°08'0 0.0
2016-Feb-03 18:33N 40°38' W 074°08'0 0.0
2016-Feb-03 17:33N 40°38' W 074°08'0 0.0
2016-Feb-03 16:33N 40°38' W 074°08'0 0.0
2016-Feb-03 15:33N 40°38' W 074°08'0 0.0
2016-Feb-03 14:33N 40°38' W 074°08'0 0.0
2016-Feb-03 13:33N 40°38' W 074°08'0 0.0
2016-Feb-03 12:33N 40°38' W 074°08'0 0.1
2016-Feb-03 11:34N 40°39' W 074°08'2 1.6
2016-Feb-03 10:34N 40°40' W 074°08'2 1.7
2016-Feb-03 09:33N 40°38' W 074°08'1 1.1
2016-Feb-03 08:33N 40°39' W 074°09'2 2.3
2016-Feb-03 07:33N 40°41' W 074°09'3 2.9
2016-Feb-03 06:33N 40°38' W 074°08'0 0.0
2016-Feb-03 05:33N 40°38' W 074°08'0 0.0
2016-Feb-03 04:33N 40°38' W 074°08'0 0.0
2016-Feb-03 03:33N 40°38' W 074°08'0 0.0
2016-Feb-03 02:33N 40°38' W 074°08'0 0.0
2016-Feb-03 01:33N 40°38' W 074°08'0 0.0
2016-Feb-03 00:33N 40°38' W 074°08'0 0.0
2016-Feb-02 23:33N 40°38' W 074°08'0 0.0
2016-Feb-02 22:33N 40°38' W 074°08'0 0.0
2016-Feb-02 21:33N 40°38' W 074°08'0 0.0
2016-Feb-02 20:33N 40°38' W 074°08'0 0.0
2016-Feb-02 19:33N 40°38' W 074°08'0 0.0
2016-Feb-02 18:33N 40°38' W 074°08'0 0.0
2016-Feb-02 17:33N 40°38' W 074°08'0 0.0
2016-Feb-02 16:33N 40°38' W 074°08'0 0.0
2016-Feb-02 15:33N 40°38' W 074°08'0 0.0
2016-Feb-02 14:33N 40°38' W 074°08'1 0.6
2016-Feb-02 13:25N 40°38' W 074°09'5 5.6
2016-Feb-02 12:33N 40°37' W 074°03'3 3.0
2016-Feb-02 11:32N 40°40' W 074°04'2 1.6
2016-Feb-02 10:33N 40°39' W 074°03'0 0.0
2016-Feb-02 09:33N 40°39' W 074°03'0 0.0
2016-Feb-02 08:33N 40°39' W 074°03'0 0.0
2016-Feb-02 07:33N 40°39' W 074°03'0 0.0
2016-Feb-02 06:33N 40°39' W 074°02'0 0.0
2016-Feb-02 05:33N 40°39' W 074°03'0 0.1
2016-Feb-02 04:33N 40°39' W 074°03'0 0.0
2016-Feb-02 03:33N 40°39' W 074°03'0 0.0
2016-Feb-02 02:33N 40°39' W 074°03'5 4.6
2016-Feb-02 01:33N 40°43' W 074°01'6 5.1
2016-Feb-02 00:24N 40°49' W 073°58'0 0.0
2016-Feb-01 22:12N 40°49' W 073°58'0 0.0
2016-Feb-01 16:03N 40°49' W 073°58'0 0.0
2016-Feb-01 15:30N 40°49' W 073°58'0 0.0
2016-Feb-01 14:27N 40°49' W 073°58'0 0.0
2016-Feb-01 11:33N 40°49' W 073°58'0 0.0
2016-Feb-01 04:33N 40°49' W 073°58'0 0.1
2016-Feb-01 03:33N 40°49' W 073°58'0 0.0
2016-Feb-01 02:27N 40°49' W 073°58'0 0.0
2016-Feb-01 01:33N 40°49' W 073°58'0 0.0
2016-Feb-01 00:30N 40°49' W 073°58'0 0.0
2016-Jan-31 23:15N 40°49' W 073°58'0 0.0
2016-Jan-31 22:33N 40°49' W 073°58'0 0.0
2016-Jan-31 17:08N 40°49' W 073°58'0 0.1
2016-Jan-31 16:32N 40°49' W 073°58'0 0.0
2016-Jan-31 15:32N 40°49' W 073°58'0 0.0
2016-Jan-31 14:20N 40°49' W 073°58'0 0.0
2016-Jan-31 13:29N 40°49' W 073°58'0 0.0
2016-Jan-31 11:32N 40°49' W 073°58'0 0.0
2016-Jan-31 10:23N 40°49' W 073°58'0 0.0
2016-Jan-31 03:20N 40°49' W 073°58'0 0.0
2016-Jan-31 01:32N 40°49' W 073°58'0 0.0
2016-Jan-31 00:32N 40°49' W 073°58'0 0.0
2016-Jan-30 22:32N 40°49' W 073°58'0 0.0
2016-Jan-30 15:24N 40°49' W 073°58'0 0.1
2016-Jan-30 14:30N 40°49' W 073°58'2 2.5
2016-Jan-30 13:33N 40°47' W 073°60'7 7.4
2016-Jan-30 12:33N 40°40' W 074°03'0 0.1
2016-Jan-30 11:31N 40°39' W 074°03'0 0.0
2016-Jan-30 10:31N 40°39' W 074°03'0 0.0
2016-Jan-30 09:31N 40°39' W 074°03'0 0.0
2016-Jan-30 08:31N 40°40' W 074°03'0 0.0
2016-Jan-30 07:31N 40°40' W 074°03'0 0.0
2016-Jan-30 06:31N 40°40' W 074°03'0 0.0
2016-Jan-30 05:31N 40°40' W 074°03'0 0.0
2016-Jan-30 04:31N 40°40' W 074°03'0 0.0
2016-Jan-30 03:31N 40°40' W 074°03'0 0.0
2016-Jan-30 02:31N 40°40' W 074°03'0 0.0
2016-Jan-30 01:31N 40°40' W 074°03'0 0.0
2016-Jan-30 00:31N 40°40' W 074°03'0 0.0
2016-Jan-29 23:31N 40°39' W 074°03'0 0.0
2016-Jan-29 22:28N 40°39' W 074°03'0 0.0
2016-Jan-29 21:31N 40°39' W 074°03'0 0.0
2016-Jan-29 20:28N 40°39' W 074°03'1 1.5
2016-Jan-29 19:33N 40°39' W 074°04'3 2.7
2016-Jan-29 18:32N 40°38' W 074°08'0 0.0
2016-Jan-29 17:32N 40°38' W 074°08'0 0.0
2016-Jan-29 16:32N 40°38' W 074°08'0 0.0
2016-Jan-29 15:32N 40°38' W 074°08'0 0.0
2016-Jan-29 14:32N 40°38' W 074°08'0 0.1
2016-Jan-29 13:33N 40°39' W 074°08'3 2.7
2016-Jan-29 12:31N 40°41' W 074°08'3 2.6
2016-Jan-29 11:33N 40°39' W 074°09'4 4.5
2016-Jan-29 10:33N 40°38' W 074°03'1 1.2
2016-Jan-29 09:32N 40°39' W 074°03'0 0.0
2016-Jan-29 08:32N 40°40' W 074°03'0 0.0
2016-Jan-29 07:32N 40°40' W 074°03'0 0.1
2016-Jan-29 06:31N 40°40' W 074°03'0 0.0
2016-Jan-29 05:31N 40°40' W 074°03'0 0.0
2016-Jan-29 04:31N 40°40' W 074°03'0 0.0
2016-Jan-29 03:31N 40°40' W 074°03'0 0.0
2016-Jan-29 02:31N 40°40' W 074°03'0 0.0
2016-Jan-29 01:31N 40°40' W 074°03'0 0.1
2016-Jan-29 00:31N 40°40' W 074°03'0 0.0
2016-Jan-28 23:31N 40°39' W 074°03'0 0.0
2016-Jan-28 22:31N 40°39' W 074°03'0 0.0
2016-Jan-28 21:28N 40°39' W 074°03'0 0.0
2016-Jan-28 20:31N 40°40' W 074°03'0 0.0
2016-Jan-28 19:31N 40°40' W 074°03'0 0.0
2016-Jan-28 18:31N 40°40' W 074°03'0 0.1
2016-Jan-28 17:31N 40°40' W 074°03'0 0.0
2016-Jan-28 16:31N 40°40' W 074°03'0 0.0
2016-Jan-28 15:31N 40°40' W 074°03'0 0.0
2016-Jan-28 14:31N 40°40' W 074°03'0 0.0
2016-Jan-28 13:31N 40°40' W 074°03'0 0.1
2016-Jan-28 12:31N 40°40' W 074°03'0 0.1
2016-Jan-28 11:31N 40°39' W 074°03'0 0.0
2016-Jan-28 10:31N 40°39' W 074°03'0 0.0
2016-Jan-28 09:31N 40°39' W 074°03'0 0.0
2016-Jan-28 08:31N 40°39' W 074°03'0 0.0
2016-Jan-28 07:31N 40°40' W 074°03'0 0.0
2016-Jan-28 06:31N 40°40' W 074°03'0 0.1
2016-Jan-28 05:31N 40°40' W 074°03'0 0.1
2016-Jan-28 04:31N 40°40' W 074°03'0 0.0
2016-Jan-28 03:31N 40°40' W 074°03'0 0.0
2016-Jan-28 02:31N 40°40' W 074°03'0 0.0
2016-Jan-28 01:31N 40°40' W 074°03'0 0.0
2016-Jan-28 00:31N 40°39' W 074°03'0 0.0
2016-Jan-27 23:31N 40°39' W 074°03'0 0.0
2016-Jan-27 22:31N 40°39' W 074°03'0 0.0
2016-Jan-27 21:31N 40°39' W 074°03'0 0.0
2016-Jan-27 20:31N 40°40' W 074°03'2 2.6
2016-Jan-27 19:33N 40°39' W 074°06'2 1.8
2016-Jan-27 18:33N 40°39' W 074°08'4 4.2
2016-Jan-27 17:32N 40°40' W 074°03'4 4.1
2016-Jan-27 16:32N 40°38' W 074°08'0 0.0
2016-Jan-27 15:32N 40°38' W 074°08'0 0.0
2016-Jan-27 14:32N 40°38' W 074°08'  
Track history (hours):
 
Tides and Currents Weather Stations Pressure Air Temp Water Temp Dewpoint Dewpoint Depression Visibility Wind Speed Wind Dir Waves Ship Positions

Kimberly Turecamo

Owner: Moran Towing Corporation, New Canaan, CT. More information available from US FCC via Universal Licensing System and Coast Guard Vessel Documentation Center.

Last reported at 2016-Feb-06 14:26 UTC. Time now 2016-Feb-06 23:26 UTC.
Position N 40°49' W 073°58'.

Length 33 m; draft 5 m.

Type: Tug. MMSI: 367061980.

Date/timePositionNaut miles runAvg speedWind from/ knotsBaromVisibWave heightAir tempDewpointWater temp
2016-Feb-06 14:26N 40°49' W 073°58'0 0.0
2016-Feb-06 13:29N 40°49' W 073°58'0 0.0
2016-Feb-06 12:32N 40°49' W 073°58'0 0.0
2016-Feb-06 11:29N 40°49' W 073°58'0 0.0
2016-Feb-06 10:32N 40°49' W 073°58'0 0.0
2016-Feb-06 09:17N 40°49' W 073°58'0 0.1
2016-Feb-06 02:30N 40°49' W 073°58'8 8.5
2016-Feb-06 01:33N 40°41' W 074°02'2 2.3
2016-Feb-06 00:32N 40°39' W 074°03'0 0.0
2016-Feb-05 23:32N 40°39' W 074°02'0 0.0
2016-Feb-05 22:32N 40°39' W 074°02'0 0.0
2016-Feb-05 21:31N 40°39' W 074°03'0 0.0
2016-Feb-05 20:31N 40°39' W 074°03'0 0.0
2016-Feb-05 19:31N 40°39' W 074°03'0 0.0
2016-Feb-05 18:31N 40°39' W 074°03'0 0.0
2016-Feb-05 17:31N 40°39' W 074°03'0 0.0
2016-Feb-05 16:31N 40°39' W 074°03'0 0.0
2016-Feb-05 15:31N 40°39' W 074°03'0 0.0
2016-Feb-05 14:31N 40°39' W 074°03'0 0.0
2016-Feb-05 13:31N 40°39' W 074°03'0 0.0
2016-Feb-05 12:31N 40°39' W 074°03'0 0.0
2016-Feb-05 11:31N 40°39' W 074°03'0 0.0
2016-Feb-05 10:31N 40°39' W 074°03'0 0.0
2016-Feb-05 09:31N 40°39' W 074°03'0 0.0
2016-Feb-05 08:31N 40°39' W 074°03'0 0.0
2016-Feb-05 07:31N 40°39' W 074°03'0 0.0
2016-Feb-05 06:31N 40°39' W 074°03'2 1.9
2016-Feb-05 05:33N 40°39' W 074°05'2 2.2
2016-Feb-05 04:33N 40°38' W 074°08'0 0.0
2016-Feb-05 03:27N 40°38' W 074°08'0 0.0
2016-Feb-05 02:24N 40°38' W 074°08'0 0.0
2016-Feb-05 01:33N 40°38' W 074°08'0 0.0
2016-Feb-05 00:33N 40°38' W 074°08'1 0.5
2016-Feb-04 23:33N 40°38' W 074°08'1 1.2
2016-Feb-04 22:33N 40°40' W 074°09'1 1.3
2016-Feb-04 21:31N 40°38' W 074°08'0 0.0
2016-Feb-04 20:31N 40°38' W 074°08'2 1.8
2016-Feb-04 19:33N 40°39' W 074°06'2 2.2
2016-Feb-04 18:32N 40°39' W 074°03'0 0.0
2016-Feb-04 17:32N 40°39' W 074°03'0 0.0
2016-Feb-04 16:32N 40°39' W 074°03'0 0.0
2016-Feb-04 15:31N 40°39' W 074°03'0 0.0
2016-Feb-04 14:33N 40°39' W 074°03'0 0.0
2016-Feb-04 13:33N 40°39' W 074°03'0 0.0
2016-Feb-04 12:33N 40°39' W 074°03'0 0.0
2016-Feb-04 11:33N 40°39' W 074°03'0 0.1
2016-Feb-04 10:33N 40°39' W 074°03'0 0.0
2016-Feb-04 09:33N 40°39' W 074°03'0 0.0
2016-Feb-04 08:33N 40°39' W 074°03'0 0.0
2016-Feb-04 07:33N 40°39' W 074°03'0 0.0
2016-Feb-04 06:33N 40°39' W 074°03'0 0.1
2016-Feb-04 05:33N 40°39' W 074°03'0 0.0
2016-Feb-04 04:33N 40°39' W 074°03'0 0.0
2016-Feb-04 03:33N 40°39' W 074°03'0 0.0
2016-Feb-04 02:33N 40°39' W 074°03'4 4.0
2016-Feb-04 01:33N 40°38' W 074°08'0 0.0
2016-Feb-04 00:32N 40°38' W 074°08'0 0.0
2016-Feb-03 23:33N 40°38' W 074°08'0 0.0
2016-Feb-03 22:33N 40°38' W 074°08'0 0.0
2016-Feb-03 21:33N 40°38' W 074°08'0 0.0
2016-Feb-03 20:33N 40°38' W 074°08'0 0.0
2016-Feb-03 19:33N 40°38' W 074°08'0 0.0
2016-Feb-03 18:33N 40°38' W 074°08'0 0.0
2016-Feb-03 17:33N 40°38' W 074°08'0 0.0
2016-Feb-03 16:33N 40°38' W 074°08'0 0.0
2016-Feb-03 15:33N 40°38' W 074°08'0 0.0
2016-Feb-03 14:33N 40°38' W 074°08'0 0.0
2016-Feb-03 13:33N 40°38' W 074°08'0 0.0
2016-Feb-03 12:33N 40°38' W 074°08'0 0.1
2016-Feb-03 11:34N 40°39' W 074°08'2 1.6
2016-Feb-03 10:34N 40°40' W 074°08'2 1.7
2016-Feb-03 09:33N 40°38' W 074°08'1 1.1
2016-Feb-03 08:33N 40°39' W 074°09'2 2.3
2016-Feb-03 07:33N 40°41' W 074°09'3 2.9
2016-Feb-03 06:33N 40°38' W 074°08'0 0.0
2016-Feb-03 05:33N 40°38' W 074°08'0 0.0
2016-Feb-03 04:33N 40°38' W 074°08'0 0.0
2016-Feb-03 03:33N 40°38' W 074°08'0 0.0
2016-Feb-03 02:33N 40°38' W 074°08'0 0.0
2016-Feb-03 01:33N 40°38' W 074°08'0 0.0
2016-Feb-03 00:33N 40°38' W 074°08'0 0.0
2016-Feb-02 23:33N 40°38' W 074°08'0 0.0
2016-Feb-02 22:33N 40°38' W 074°08'0 0.0
2016-Feb-02 21:33N 40°38' W 074°08'0 0.0
2016-Feb-02 20:33N 40°38' W 074°08'0 0.0
2016-Feb-02 19:33N 40°38' W 074°08'0 0.0
2016-Feb-02 18:33N 40°38' W 074°08'0 0.0
2016-Feb-02 17:33N 40°38' W 074°08'0 0.0
2016-Feb-02 16:33N 40°38' W 074°08'0 0.0
2016-Feb-02 15:33N 40°38' W 074°08'0 0.0
2016-Feb-02 14:33N 40°38' W 074°08'1 0.6
2016-Feb-02 13:25N 40°38' W 074°09'5 5.6
2016-Feb-02 12:33N 40°37' W 074°03'3 3.0
2016-Feb-02 11:32N 40°40' W 074°04'2 1.6
2016-Feb-02 10:33N 40°39' W 074°03'0 0.0
2016-Feb-02 09:33N 40°39' W 074°03'0 0.0
2016-Feb-02 08:33N 40°39' W 074°03'0 0.0
2016-Feb-02 07:33N 40°39' W 074°03'0 0.0
2016-Feb-02 06:33N 40°39' W 074°02'0 0.0
2016-Feb-02 05:33N 40°39' W 074°03'0 0.1
2016-Feb-02 04:33N 40°39' W 074°03'0 0.0
2016-Feb-02 03:33N 40°39' W 074°03'0 0.0
2016-Feb-02 02:33N 40°39' W 074°03'5 4.6
2016-Feb-02 01:33N 40°43' W 074°01'6 5.1
2016-Feb-02 00:24N 40°49' W 073°58'0 0.0
2016-Feb-01 22:12N 40°49' W 073°58'0 0.0
2016-Feb-01 16:03N 40°49' W 073°58'0 0.0
2016-Feb-01 15:30N 40°49' W 073°58'0 0.0
2016-Feb-01 14:27N 40°49' W 073°58'0 0.0
2016-Feb-01 11:33N 40°49' W 073°58'0 0.0
2016-Feb-01 04:33N 40°49' W 073°58'0 0.1
2016-Feb-01 03:33N 40°49' W 073°58'0 0.0
2016-Feb-01 02:27N 40°49' W 073°58'0 0.0
2016-Feb-01 01:33N 40°49' W 073°58'0 0.0
2016-Feb-01 00:30N 40°49' W 073°58'0 0.0
2016-Jan-31 23:15N 40°49' W 073°58'0 0.0
2016-Jan-31 22:33N 40°49' W 073°58'0 0.0
2016-Jan-31 17:08N 40°49' W 073°58'0 0.1
2016-Jan-31 16:32N 40°49' W 073°58'0 0.0
2016-Jan-31 15:32N 40°49' W 073°58'0 0.0
2016-Jan-31 14:20N 40°49' W 073°58'0 0.0
2016-Jan-31 13:29N 40°49' W 073°58'0 0.0
2016-Jan-31 11:32N 40°49' W 073°58'0 0.0
2016-Jan-31 10:23N 40°49' W 073°58'0 0.0
2016-Jan-31 03:20N 40°49' W 073°58'0 0.0
2016-Jan-31 01:32N 40°49' W 073°58'0 0.0
2016-Jan-31 00:32N 40°49' W 073°58'0 0.0
2016-Jan-30 22:32N 40°49' W 073°58'0 0.0
2016-Jan-30 15:24N 40°49' W 073°58'0 0.1
2016-Jan-30 14:30N 40°49' W 073°58'2 2.5
2016-Jan-30 13:33N 40°47' W 073°60'7 7.4
2016-Jan-30 12:33N 40°40' W 074°03'0 0.1
2016-Jan-30 11:31N 40°39' W 074°03'0 0.0
2016-Jan-30 10:31N 40°39' W 074°03'0 0.0
2016-Jan-30 09:31N 40°39' W 074°03'0 0.0
2016-Jan-30 08:31N 40°40' W 074°03'0 0.0
2016-Jan-30 07:31N 40°40' W 074°03'0 0.0
2016-Jan-30 06:31N 40°40' W 074°03'0 0.0
2016-Jan-30 05:31N 40°40' W 074°03'0 0.0
2016-Jan-30 04:31N 40°40' W 074°03'0 0.0
2016-Jan-30 03:31N 40°40' W 074°03'0 0.0
2016-Jan-30 02:31N 40°40' W 074°03'0 0.0
2016-Jan-30 01:31N 40°40' W 074°03'0 0.0
2016-Jan-30 00:31N 40°40' W 074°03'0 0.0
2016-Jan-29 23:31N 40°39' W 074°03'0 0.0
2016-Jan-29 22:28N 40°39' W 074°03'0 0.0
2016-Jan-29 21:31N 40°39' W 074°03'0 0.0
2016-Jan-29 20:28N 40°39' W 074°03'1 1.5
2016-Jan-29 19:33N 40°39' W 074°04'3 2.7
2016-Jan-29 18:32N 40°38' W 074°08'0 0.0
2016-Jan-29 17:32N 40°38' W 074°08'0 0.0
2016-Jan-29 16:32N 40°38' W 074°08'0 0.0
2016-Jan-29 15:32N 40°38' W 074°08'0 0.0
2016-Jan-29 14:32N 40°38' W 074°08'0 0.1
2016-Jan-29 13:33N 40°39' W 074°08'3 2.7
2016-Jan-29 12:31N 40°41' W 074°08'3 2.6
2016-Jan-29 11:33N 40°39' W 074°09'4 4.5
2016-Jan-29 10:33N 40°38' W 074°03'1 1.2
2016-Jan-29 09:32N 40°39' W 074°03'0 0.0
2016-Jan-29 08:32N 40°40' W 074°03'0 0.0
2016-Jan-29 07:32N 40°40' W 074°03'0 0.1
2016-Jan-29 06:31N 40°40' W 074°03'0 0.0
2016-Jan-29 05:31N 40°40' W 074°03'0 0.0
2016-Jan-29 04:31N 40°40' W 074°03'0 0.0
2016-Jan-29 03:31N 40°40' W 074°03'0 0.0
2016-Jan-29 02:31N 40°40' W 074°03'0 0.0
2016-Jan-29 01:31N 40°40' W 074°03'0 0.1
2016-Jan-29 00:31N 40°40' W 074°03'0 0.0
2016-Jan-28 23:31N 40°39' W 074°03'0 0.0
2016-Jan-28 22:31N 40°39' W 074°03'0 0.0
2016-Jan-28 21:28N 40°39' W 074°03'0 0.0
2016-Jan-28 20:31N 40°40' W 074°03'0 0.0
2016-Jan-28 19:31N 40°40' W 074°03'0 0.0
2016-Jan-28 18:31N 40°40' W 074°03'0 0.1
2016-Jan-28 17:31N 40°40' W 074°03'0 0.0
2016-Jan-28 16:31N 40°40' W 074°03'0 0.0
2016-Jan-28 15:31N 40°40' W 074°03'0 0.0
2016-Jan-28 14:31N 40°40' W 074°03'0 0.0
2016-Jan-28 13:31N 40°40' W 074°03'0 0.1
2016-Jan-28 12:31N 40°40' W 074°03'0 0.1
2016-Jan-28 11:31N 40°39' W 074°03'0 0.0
2016-Jan-28 10:31N 40°39' W 074°03'0 0.0
2016-Jan-28 09:31N 40°39' W 074°03'0 0.0
2016-Jan-28 08:31N 40°39' W 074°03'0 0.0
2016-Jan-28 07:31N 40°40' W 074°03'0 0.0
2016-Jan-28 06:31N 40°40' W 074°03'0 0.1
2016-Jan-28 05:31N 40°40' W 074°03'0 0.1
2016-Jan-28 04:31N 40°40' W 074°03'0 0.0
2016-Jan-28 03:31N 40°40' W 074°03'0 0.0
2016-Jan-28 02:31N 40°40' W 074°03'0 0.0
2016-Jan-28 01:31N 40°40' W 074°03'0 0.0
2016-Jan-28 00:31N 40°39' W 074°03'0 0.0
2016-Jan-27 23:31N 40°39' W 074°03'0 0.0
2016-Jan-27 22:31N 40°39' W 074°03'0 0.0
2016-Jan-27 21:31N 40°39' W 074°03'0 0.0
2016-Jan-27 20:31N 40°40' W 074°03'2 2.6
2016-Jan-27 19:33N 40°39' W 074°06'2 1.8
2016-Jan-27 18:33N 40°39' W 074°08'4 4.2
2016-Jan-27 17:32N 40°40' W 074°03'4 4.1
2016-Jan-27 16:32N 40°38' W 074°08'0 0.0
2016-Jan-27 15:32N 40°38' W 074°08'0 0.0
2016-Jan-27 14:32N 40°38' W 074°08'  

Dump ship's entire track history